createdAt,value
2023-02-21T00:00:14.997Z,99.90
2023-02-21T00:02:44.243Z,99.90
2023-02-21T00:05:12.576Z,99.90
2023-02-21T00:07:40.978Z,99.90
2023-02-21T00:10:11.917Z,99.90
2023-02-21T00:12:42.190Z,99.90
2023-02-21T00:15:11.589Z,99.90
2023-02-21T00:17:39.816Z,99.90
2023-02-21T00:20:08.562Z,99.90
2023-02-21T00:22:36.779Z,99.90
2023-02-21T00:25:05.021Z,99.90
2023-02-21T00:27:33.376Z,99.90
2023-02-21T00:30:01.574Z,99.90
2023-02-21T00:32:30.017Z,99.90
2023-02-21T00:34:58.351Z,99.90
2023-02-21T00:37:26.542Z,99.90
2023-02-21T00:39:55.132Z,99.90
2023-02-21T00:42:23.917Z,99.90
2023-02-21T00:44:52.289Z,99.90
2023-02-21T00:47:20.628Z,99.90
2023-02-21T00:49:48.834Z,99.90
2023-02-21T00:52:16.941Z,99.90
2023-02-21T00:54:45.405Z,99.90
2023-02-21T00:57:13.984Z,99.90
2023-02-21T00:59:42.370Z,99.90
2023-02-21T01:02:10.764Z,99.90
2023-02-21T01:04:39.014Z,99.90
2023-02-21T01:07:08.493Z,99.90
2023-02-21T01:09:37.067Z,99.90
2023-02-21T01:12:05.646Z,99.90
2023-02-21T01:14:33.909Z,99.90
2023-02-21T01:17:12.482Z,99.90
2023-02-21T01:19:43.094Z,99.90
2023-02-21T01:22:11.415Z,99.90
2023-02-21T01:24:39.745Z,99.90
2023-02-21T01:27:08.117Z,99.90
2023-02-21T01:29:36.427Z,99.90
2023-02-21T01:32:04.771Z,99.90
2023-02-21T01:34:34.655Z,99.90
2023-02-21T01:37:04.412Z,99.90
2023-02-21T01:39:33.027Z,99.90
2023-02-21T01:42:02.049Z,99.90
2023-02-21T01:44:41.089Z,99.90
2023-02-21T01:47:12.722Z,99.90
2023-02-21T01:49:42.150Z,99.90
2023-02-21T01:52:11.934Z,99.90
2023-02-21T01:54:46.706Z,99.90
2023-02-21T01:57:15.838Z,99.90
2023-02-21T01:59:44.531Z,99.90
2023-02-21T02:02:29.717Z,99.90
2023-02-21T02:04:59.346Z,99.90
2023-02-21T02:07:27.622Z,99.90
2023-02-21T02:09:56.088Z,99.90
2023-02-21T02:12:49.531Z,99.90
2023-02-21T02:15:34.217Z,99.90
2023-02-21T02:18:21.919Z,99.90
2023-02-21T02:21:15.131Z,99.90
2023-02-21T02:23:58.920Z,99.90
2023-02-21T02:26:48.756Z,99.90
2023-02-21T02:29:44.650Z,99.90
2023-02-21T02:32:22.096Z,99.90
2023-02-21T02:35:25.470Z,99.90
2023-02-21T02:38:06.695Z,99.90
2023-02-21T02:40:58.878Z,99.90
2023-02-21T02:43:30.455Z,99.90
2023-02-21T02:46:17.896Z,99.90
2023-02-21T02:49:10.126Z,99.90
2023-02-21T02:51:38.729Z,99.90
2023-02-21T02:54:09.158Z,99.90
2023-02-21T02:56:37.700Z,99.90
2023-02-21T02:59:14.357Z,99.90
2023-02-21T03:01:54.956Z,99.90
2023-02-21T03:04:44.638Z,99.90
2023-02-21T03:07:30.555Z,99.90
2023-02-21T03:10:21.843Z,99.90
2023-02-21T03:13:18.733Z,99.90
2023-02-21T03:16:05.817Z,99.90
2023-02-21T03:18:46.498Z,99.90
2023-02-21T03:21:29.291Z,99.90
2023-02-21T03:24:01.993Z,99.90
2023-02-21T03:26:36.431Z,99.90
2023-02-21T03:29:22.808Z,99.90
2023-02-21T03:32:00.900Z,99.90
2023-02-21T03:34:29.234Z,99.90
2023-02-21T03:36:57.621Z,99.90
2023-02-21T03:39:25.971Z,99.90
2023-02-21T03:41:54.135Z,99.90
2023-02-21T03:44:23.029Z,99.90
2023-02-21T03:46:51.314Z,99.90
2023-02-21T03:49:19.841Z,99.90
2023-02-21T03:51:48.239Z,99.90
2023-02-21T03:54:16.802Z,99.90
2023-02-21T03:56:49.648Z,99.90
2023-02-21T03:59:25.378Z,99.90
2023-02-21T04:01:54.502Z,99.90
2023-02-21T04:04:23.486Z,99.90
2023-02-21T04:07:00.056Z,99.90
2023-02-21T04:09:28.641Z,99.90
2023-02-21T04:11:57.016Z,99.90
2023-02-21T04:14:25.389Z,99.90
2023-02-21T04:16:53.591Z,99.90
2023-02-21T04:19:23.540Z,99.90
2023-02-21T04:21:51.924Z,99.90
2023-02-21T04:24:20.328Z,99.90
2023-02-21T04:26:49.203Z,99.90
2023-02-21T04:29:18.096Z,99.90
2023-02-21T04:31:46.622Z,99.90
2023-02-21T04:34:17.950Z,99.90
2023-02-21T04:36:47.603Z,99.90
2023-02-21T04:39:17.656Z,99.90
2023-02-21T04:41:46.077Z,99.90
2023-02-21T04:44:14.889Z,99.90
2023-02-21T04:46:43.046Z,99.90
2023-02-21T04:49:13.782Z,99.90
2023-02-21T04:51:42.827Z,99.90
2023-02-21T04:54:12.446Z,99.90
2023-02-21T04:56:42.340Z,99.90
2023-02-21T04:59:10.548Z,99.90
2023-02-21T05:01:44.409Z,99.90
2023-02-21T05:04:23.145Z,99.90
2023-02-21T05:06:54.522Z,99.90
2023-02-21T05:09:22.691Z,99.90
2023-02-21T05:11:50.907Z,99.90
2023-02-21T05:14:19.224Z,99.90
2023-02-21T05:16:47.757Z,99.90
2023-02-21T05:19:21.124Z,99.90
2023-02-21T05:21:49.285Z,99.90
2023-02-21T05:24:17.407Z,99.90
2023-02-21T05:26:45.841Z,99.90
2023-02-21T05:29:13.935Z,99.90
2023-02-21T05:31:42.276Z,99.90
2023-02-21T05:34:10.623Z,99.90
2023-02-21T05:36:40.104Z,99.90
2023-02-21T05:39:10.129Z,99.90
2023-02-21T05:41:38.572Z,99.90
2023-02-21T05:44:07.381Z,99.90
2023-02-21T05:46:36.462Z,99.90
2023-02-21T05:49:05.364Z,99.90
2023-02-21T05:51:41.549Z,99.90
2023-02-21T05:54:14.061Z,99.90
2023-02-21T05:56:44.207Z,99.90
2023-02-21T05:59:13.330Z,99.90
2023-02-21T06:01:41.825Z,99.90
2023-02-21T06:04:10.087Z,99.90
2023-02-21T06:06:38.758Z,99.90
2023-02-21T06:09:08.023Z,99.90
2023-02-21T06:11:38.093Z,99.90
2023-02-21T06:14:18.314Z,99.90
2023-02-21T06:16:52.337Z,99.90
2023-02-21T06:19:20.666Z,99.90
2023-02-21T06:21:49.719Z,99.90
2023-02-21T06:24:18.253Z,99.90
2023-02-21T06:26:46.571Z,99.90
2023-02-21T06:29:14.956Z,99.90
2023-02-21T06:31:56.630Z,99.90
2023-02-21T06:34:32.167Z,99.90
2023-02-21T06:37:00.556Z,99.90
2023-02-21T06:39:31.621Z,99.90
2023-02-21T06:41:59.926Z,99.90
2023-02-21T06:44:28.047Z,99.90
2023-02-21T06:46:56.457Z,99.90
2023-02-21T06:49:28.038Z,99.90
2023-02-21T06:52:25.169Z,99.90
2023-02-21T06:57:40.939Z,99.90
2023-02-21T07:00:12.942Z,99.90
2023-02-21T07:09:00.376Z,99.90
2023-02-21T07:11:29.507Z,99.90
2023-02-21T07:13:57.792Z,99.90
2023-02-21T07:16:27.084Z,99.90
2023-02-21T07:18:55.484Z,99.90
2023-02-21T07:21:25.921Z,99.90
2023-02-21T07:23:54.364Z,99.90
2023-02-21T07:26:22.727Z,99.90
2023-02-21T07:28:53.080Z,99.90
2023-02-21T07:31:22.629Z,99.90
2023-02-21T07:33:51.108Z,99.90
2023-02-21T07:36:19.366Z,99.90
2023-02-21T07:38:47.691Z,99.90
2023-02-21T07:41:17.504Z,99.90
2023-02-21T07:43:46.062Z,99.90
2023-02-21T07:46:16.796Z,99.90
2023-02-21T07:48:45.070Z,99.90
2023-02-21T07:51:13.588Z,99.90
2023-02-21T07:53:41.977Z,99.90
2023-02-21T07:56:19.635Z,99.90
2023-02-21T07:58:48.061Z,99.90
2023-02-21T08:01:16.867Z,99.90
2023-02-21T08:03:45.319Z,99.90
2023-02-21T08:06:13.647Z,99.90
2023-02-21T08:08:43.814Z,99.90
2023-02-21T08:11:12.181Z,99.90
2023-02-21T08:13:40.579Z,99.90
2023-02-21T08:16:08.982Z,99.90
2023-02-21T08:18:37.217Z,99.90
2023-02-21T08:21:12.028Z,99.90
2023-02-21T08:23:40.302Z,99.90
2023-02-21T08:26:12.435Z,99.90
2023-02-21T08:28:40.797Z,99.90
2023-02-21T08:31:08.936Z,99.90
2023-02-21T08:33:37.172Z,99.90
2023-02-21T08:36:06.218Z,99.90
2023-02-21T08:38:34.470Z,99.90
2023-02-21T08:41:02.655Z,99.90
2023-02-21T08:43:31.031Z,99.90
2023-02-21T08:45:59.684Z,99.90
2023-02-21T08:48:27.857Z,99.90
2023-02-21T08:50:56.022Z,99.90
2023-02-21T08:53:24.372Z,99.90
2023-02-21T08:55:52.610Z,99.90
2023-02-21T08:58:20.673Z,99.90
2023-02-21T09:00:49.188Z,99.90
2023-02-21T09:03:17.438Z,99.90
2023-02-21T09:05:45.624Z,99.90
2023-02-21T09:08:13.947Z,99.40
2023-02-21T09:10:42.182Z,99.40
2023-02-21T09:13:10.317Z,99.40
2023-02-21T09:15:38.613Z,99.00
2023-02-21T09:18:06.742Z,98.40
2023-02-21T09:20:35.954Z,98.50
2023-02-21T09:23:04.332Z,97.50
2023-02-21T09:25:32.555Z,97.70
2023-02-21T09:28:00.794Z,96.90
2023-02-21T09:30:29.295Z,96.30
2023-02-21T09:32:58.849Z,97.60
2023-02-21T09:35:27.779Z,98.20
2023-02-21T09:37:55.933Z,98.30
2023-02-21T09:40:48.837Z,99.20
2023-02-21T09:43:31.675Z,98.50
2023-02-21T09:46:03.315Z,98.20
2023-02-21T09:48:32.442Z,98.50
2023-02-21T09:51:06.198Z,97.90
2023-02-21T09:53:46.915Z,98.00
2023-02-21T09:56:31.860Z,98.60
2023-02-21T09:59:00.440Z,99.60
2023-02-21T10:01:43.914Z,99.90
2023-02-21T10:05:08.201Z,99.90
2023-02-21T10:07:42.436Z,99.90
2023-02-21T10:10:38.874Z,99.90
2023-02-21T10:13:37.098Z,99.90
2023-02-21T10:16:27.092Z,99.90
2023-02-21T10:19:35.786Z,99.90
2023-02-21T10:22:14.727Z,99.90
2023-02-21T10:24:43.487Z,99.70
2023-02-21T10:27:34.023Z,99.40
2023-02-21T10:30:08.769Z,99.80
2023-02-21T10:32:37.931Z,99.40
2023-02-21T10:35:06.613Z,99.90
2023-02-21T10:37:38.342Z,99.90
2023-02-21T10:40:34.458Z,99.90
2023-02-21T10:43:41.398Z,99.90
2023-02-21T10:46:23.568Z,99.90
2023-02-21T10:48:54.614Z,99.90
2023-02-21T10:51:35.330Z,99.90
2023-02-21T10:54:35.792Z,99.90
2023-02-21T10:57:07.165Z,99.90
2023-02-21T10:59:39.333Z,99.90
2023-02-21T11:02:34.879Z,99.90
2023-02-21T11:05:10.967Z,99.90
2023-02-21T11:07:39.613Z,99.90
2023-02-21T11:10:38.402Z,99.90
2023-02-21T11:13:14.419Z,99.90
2023-02-21T11:15:44.272Z,99.90
2023-02-21T11:18:23.195Z,99.90
2023-02-21T11:20:53.783Z,99.90
2023-02-21T11:23:26.878Z,99.80
2023-02-21T11:26:11.130Z,99.90
2023-02-21T11:28:45.355Z,99.90
2023-02-21T11:31:37.638Z,99.90
2023-02-21T11:34:09.569Z,99.90
2023-02-21T11:37:02.995Z,99.90
2023-02-21T11:39:35.511Z,99.90
2023-02-21T11:42:23.664Z,99.90
2023-02-21T11:45:15.011Z,99.90
2023-02-21T11:48:02.030Z,99.90
2023-02-21T11:50:41.383Z,99.90
2023-02-21T11:53:19.291Z,99.90
2023-02-21T11:56:22.923Z,99.90
2023-02-21T11:59:11.097Z,99.90
2023-02-21T12:02:00.646Z,99.90
2023-02-21T12:04:53.941Z,99.90
2023-02-21T12:08:01.091Z,99.90
2023-02-21T12:10:45.216Z,99.90
2023-02-21T12:13:46.219Z,99.90
2023-02-21T12:16:55.886Z,99.90
2023-02-21T12:19:50.812Z,99.90
2023-02-21T12:22:56.079Z,99.90
2023-02-21T12:25:52.381Z,99.90
2023-02-21T12:28:54.460Z,99.90
2023-02-21T12:31:53.158Z,99.90
2023-02-21T12:34:44.200Z,99.90
2023-02-21T12:37:23.306Z,99.90
2023-02-21T12:40:32.345Z,99.90
2023-02-21T12:43:18.603Z,99.90
2023-02-21T12:45:54.746Z,99.90
2023-02-21T12:48:44.411Z,99.90
2023-02-21T12:51:19.444Z,99.90
2023-02-21T12:53:54.476Z,99.90
2023-02-21T12:56:33.210Z,99.90
2023-02-21T12:59:20.675Z,99.90
2023-02-21T13:02:01.793Z,99.90
2023-02-21T13:04:47.901Z,99.90
2023-02-21T13:07:20.357Z,99.90
2023-02-21T13:09:54.343Z,99.90
2023-02-21T13:12:47.880Z,99.90
2023-02-21T13:15:21.039Z,99.90
2023-02-21T13:18:07.758Z,99.90
2023-02-21T13:20:40.778Z,99.90
2023-02-21T13:23:44.369Z,99.90
2023-02-21T13:26:22.079Z,99.90
2023-02-21T13:28:57.806Z,99.90
2023-02-21T13:31:34.399Z,99.90
2023-02-21T13:34:03.805Z,99.90
2023-02-21T13:36:39.361Z,99.90
2023-02-21T13:39:10.427Z,99.90
2023-02-21T13:42:06.645Z,99.90
2023-02-21T13:44:41.875Z,99.90
2023-02-21T13:47:19.780Z,99.90
2023-02-21T13:49:58.997Z,99.90
2023-02-21T13:52:29.548Z,99.90
2023-02-21T13:55:13.089Z,99.90
2023-02-21T13:57:46.755Z,99.90
2023-02-21T14:00:27.100Z,99.90
2023-02-21T14:03:05.666Z,99.90
2023-02-21T14:05:46.077Z,99.90
2023-02-21T14:08:15.292Z,99.90
2023-02-21T14:10:58.649Z,99.60
2023-02-21T14:13:34.124Z,99.90
2023-02-21T14:16:24.025Z,99.90
2023-02-21T14:19:09.564Z,99.90
2023-02-21T14:21:39.729Z,99.90
2023-02-21T14:24:10.851Z,99.90
2023-02-21T14:26:44.332Z,99.90
2023-02-21T14:29:17.356Z,99.90
2023-02-21T14:31:53.303Z,99.90
2023-02-21T14:38:30.077Z,99.90
2023-02-21T14:41:11.406Z,99.90
2023-02-21T14:43:45.514Z,99.90
2023-02-21T14:47:01.359Z,99.90
2023-02-21T14:50:08.540Z,99.90
2023-02-21T14:53:06.335Z,99.90
2023-02-21T14:56:08.577Z,99.90
2023-02-21T14:58:46.250Z,99.90
2023-02-21T15:01:48.400Z,99.90
2023-02-21T15:04:24.602Z,99.90
2023-02-21T15:07:04.723Z,99.90
2023-02-21T15:09:33.199Z,99.90
2023-02-21T15:12:02.024Z,99.90
2023-02-21T15:14:42.590Z,99.90
2023-02-21T15:17:21.102Z,99.90
2023-02-21T15:20:03.927Z,99.90
2023-02-21T15:22:32.350Z,99.90
2023-02-21T15:25:09.631Z,99.90
2023-02-21T15:27:52.766Z,99.90
2023-02-21T15:30:23.106Z,99.90
2023-02-21T15:33:06.467Z,99.90
2023-02-21T15:35:38.170Z,99.90
2023-02-21T15:38:10.474Z,99.90
2023-02-21T15:40:39.302Z,99.90
2023-02-21T15:43:08.675Z,99.90
2023-02-21T15:45:46.839Z,99.90
2023-02-21T15:48:15.433Z,99.90
2023-02-21T15:50:46.779Z,99.90
2023-02-21T15:53:24.321Z,99.90
2023-02-21T15:55:54.078Z,99.90
2023-02-21T15:58:26.328Z,99.90
2023-02-21T16:01:09.311Z,99.90
2023-02-21T16:03:45.454Z,99.90
2023-02-21T16:06:28.872Z,99.90
2023-02-21T16:09:20.540Z,99.90
2023-02-21T16:11:57.507Z,99.90
2023-02-21T16:14:40.614Z,99.90
2023-02-21T16:17:29.803Z,99.90
2023-02-21T16:20:10.228Z,99.90
2023-02-21T16:23:06.398Z,99.90
2023-02-21T16:25:29.230Z,99.90
2023-02-21T16:27:59.152Z,99.90
2023-02-21T16:30:30.025Z,99.90
2023-02-21T16:33:04.191Z,99.90
2023-02-21T16:35:34.252Z,99.90
2023-02-21T16:38:02.735Z,99.90
2023-02-21T16:40:34.001Z,99.90
2023-02-21T16:43:03.925Z,99.90
2023-02-21T16:45:33.085Z,99.90
2023-02-21T16:48:04.809Z,99.90
2023-02-21T16:50:37.916Z,99.90
2023-02-21T16:53:07.192Z,99.90
2023-02-21T16:55:35.448Z,99.90
2023-02-21T16:58:09.298Z,99.90
2023-02-21T17:00:37.683Z,99.90
2023-02-21T17:03:05.987Z,99.90
2023-02-21T17:05:34.260Z,99.90
2023-02-21T17:08:03.553Z,99.90
2023-02-21T17:10:32.047Z,99.90
2023-02-21T17:13:00.809Z,99.90
2023-02-21T17:15:28.951Z,99.90
2023-02-21T17:17:57.475Z,99.90
2023-02-21T17:20:26.100Z,99.90
2023-02-21T17:25:57.738Z,99.90
2023-02-21T17:28:26.135Z,99.90
2023-02-21T17:30:54.624Z,99.90
2023-02-21T17:33:23.625Z,99.90
2023-02-21T17:35:53.866Z,99.90
2023-02-21T17:38:22.281Z,99.90
2023-02-21T17:40:50.463Z,99.90
2023-02-21T17:43:18.898Z,99.90
2023-02-21T17:45:47.473Z,99.90
2023-02-21T17:48:15.649Z,99.90
2023-02-21T17:50:43.958Z,99.90
2023-02-21T17:53:12.198Z,99.90
2023-02-21T17:55:40.513Z,99.90
2023-02-21T17:58:08.829Z,99.90
2023-02-21T18:00:37.064Z,99.90
2023-02-21T18:03:06.008Z,99.90
2023-02-21T18:05:34.405Z,99.90
2023-02-21T18:08:02.610Z,99.90
2023-02-21T18:10:32.507Z,99.90
2023-02-21T18:13:00.789Z,99.90
2023-02-21T18:15:29.222Z,99.90
2023-02-21T18:17:58.279Z,99.90
2023-02-21T18:20:26.597Z,99.90
2023-02-21T18:22:55.096Z,99.90
2023-02-21T18:25:23.509Z,99.90
2023-02-21T18:27:52.412Z,99.90
2023-02-21T18:30:20.826Z,99.90
2023-02-21T18:32:49.341Z,99.90
2023-02-21T18:35:18.241Z,99.90
2023-02-21T18:37:46.996Z,99.90
2023-02-21T18:40:19.316Z,99.90
2023-02-21T18:42:48.075Z,99.90
2023-02-21T18:45:16.297Z,99.90
2023-02-21T18:47:44.700Z,99.90
2023-02-21T18:50:13.050Z,99.90
2023-02-21T18:52:41.696Z,99.90
2023-02-21T18:55:10.054Z,99.90
2023-02-21T18:57:38.412Z,99.90
2023-02-21T19:00:10.138Z,99.90
2023-02-21T19:02:38.441Z,99.90
2023-02-21T19:05:07.112Z,99.90
2023-02-21T19:07:35.464Z,99.90
2023-02-21T19:10:04.223Z,99.90
2023-02-21T19:12:32.611Z,99.90
2023-02-21T19:15:00.706Z,99.90
2023-02-21T19:17:29.529Z,99.90
2023-02-21T19:19:58.011Z,99.90
2023-02-21T19:22:31.494Z,99.90
2023-02-21T19:25:00.007Z,99.90
2023-02-21T19:27:28.283Z,99.90
2023-02-21T19:29:56.358Z,99.90
2023-02-21T19:32:25.220Z,99.90
2023-02-21T19:34:53.515Z,99.90
2023-02-21T19:37:21.987Z,99.90
2023-02-21T19:39:50.552Z,99.90
2023-02-21T19:42:18.803Z,99.90
2023-02-21T19:44:46.958Z,99.90
2023-02-21T19:47:21.353Z,99.90
2023-02-21T19:49:49.721Z,99.90
2023-02-21T19:52:18.144Z,99.90
2023-02-21T19:54:47.810Z,99.90
2023-02-21T19:57:16.055Z,99.90
2023-02-21T19:59:44.474Z,99.90
2023-02-21T20:02:41.722Z,99.90
2023-02-21T20:05:09.962Z,99.90
2023-02-21T20:07:38.094Z,99.90
2023-02-21T20:10:06.901Z,99.90
2023-02-21T20:12:35.349Z,99.90
2023-02-21T20:15:04.931Z,99.90
2023-02-21T20:17:36.226Z,99.90
2023-02-21T20:20:17.386Z,99.90
2023-02-21T20:23:18.110Z,99.90
2023-02-21T20:25:46.901Z,99.90
2023-02-21T20:28:20.463Z,99.90
2023-02-21T20:30:52.237Z,99.90
2023-02-21T20:33:20.614Z,99.90
2023-02-21T20:35:59.698Z,99.90
2023-02-21T20:38:28.079Z,99.90
2023-02-21T20:40:56.351Z,99.90
2023-02-21T20:43:25.573Z,99.90
2023-02-21T20:45:56.755Z,99.90
2023-02-21T20:48:25.070Z,99.90
2023-02-21T20:50:53.877Z,99.90
2023-02-21T20:53:22.247Z,99.90
2023-02-21T20:55:50.628Z,99.90
2023-02-21T20:58:20.853Z,99.90
2023-02-21T21:00:54.476Z,99.90
2023-02-21T21:03:23.171Z,99.90
2023-02-21T21:05:51.331Z,99.90
2023-02-21T21:08:23.026Z,99.90
2023-02-21T21:10:51.453Z,99.90
2023-02-21T21:13:20.165Z,99.90
2023-02-21T21:15:48.450Z,99.90
2023-02-21T21:18:16.854Z,99.90
2023-02-21T21:20:45.090Z,99.90
2023-02-21T21:23:13.336Z,99.90
2023-02-21T21:25:41.758Z,99.90
2023-02-21T21:28:10.118Z,99.90
2023-02-21T21:30:38.585Z,99.90
2023-02-21T21:33:07.085Z,99.90
2023-02-21T21:35:35.978Z,99.90
2023-02-21T21:38:05.423Z,99.90
2023-02-21T21:40:33.887Z,99.90
2023-02-21T21:43:02.241Z,99.90
2023-02-21T21:45:30.449Z,99.90
2023-02-21T21:47:58.943Z,99.90
2023-02-21T21:50:27.779Z,99.90
2023-02-21T21:52:57.802Z,99.90
2023-02-21T21:55:29.622Z,99.90
2023-02-21T21:57:58.227Z,99.90
2023-02-21T22:00:29.912Z,99.90
2023-02-21T22:03:00.895Z,99.90
2023-02-21T22:05:31.100Z,99.90
2023-02-21T22:07:59.910Z,99.90
2023-02-21T22:10:29.481Z,99.90
2023-02-21T22:12:58.402Z,99.90
2023-02-21T22:15:29.268Z,99.90
2023-02-21T22:17:57.686Z,99.90
2023-02-21T22:20:26.203Z,99.90
2023-02-21T22:22:55.149Z,99.90
2023-02-21T22:25:23.261Z,99.90
2023-02-21T22:27:54.284Z,99.90
2023-02-21T22:30:23.321Z,99.90
2023-02-21T22:32:52.452Z,99.90
2023-02-21T22:35:21.348Z,99.90
2023-02-21T22:37:54.540Z,99.90
2023-02-21T22:40:26.715Z,99.90
2023-02-21T22:43:01.078Z,99.90
2023-02-21T22:45:30.959Z,99.90
2023-02-21T22:47:59.820Z,99.90
2023-02-21T22:50:28.016Z,99.90
2023-02-21T22:53:01.588Z,99.90
2023-02-21T22:55:31.332Z,99.90
2023-02-21T22:58:00.463Z,99.90
2023-02-21T23:00:31.555Z,99.90
2023-02-21T23:03:02.491Z,99.90
2023-02-21T23:05:30.839Z,99.90
2023-02-21T23:07:59.074Z,99.90
2023-02-21T23:10:28.905Z,99.90
2023-02-21T23:12:59.671Z,99.90
2023-02-21T23:15:28.825Z,99.90
2023-02-21T23:17:57.057Z,99.90
2023-02-21T23:20:25.935Z,99.90
2023-02-21T23:22:55.188Z,99.90
2023-02-21T23:25:29.039Z,99.90
2023-02-21T23:28:00.321Z,99.90
2023-02-21T23:30:28.687Z,99.90
2023-02-21T23:32:57.015Z,99.90
2023-02-21T23:35:25.304Z,99.90
2023-02-21T23:37:53.885Z,99.90
2023-02-21T23:40:24.030Z,99.90
2023-02-21T23:42:55.163Z,99.90
2023-02-21T23:45:27.778Z,99.90
2023-02-21T23:47:56.969Z,99.90
2023-02-21T23:50:26.473Z,99.90
2023-02-21T23:52:54.737Z,99.90
2023-02-21T23:55:24.733Z,99.90
2023-02-21T23:57:54.236Z,99.90
